Time;durP1;ratioP1;P1;durP2;ratioP2;P2;SDS_P1;SDS_P2;PMS_P1;PMS_P2;Temp;Humidity;BMP_temperature;BMP_pressure;BME280_temperature;BME280_humidity;BME280_pressure;Samples;Min_cycle;Max_cycle;Signal;HPM_P1;HPM_P2
2023/03/22 00:01:24;;;;;;;9.57;4.97;;;;;;;9.49;85.08;100712.25;4971710;28;20120;-70
2023/03/22 00:03:50;;;;;;;10.68;5.00;;;;;;;9.50;85.93;100710.50;4968135;28;20080;-69
2023/03/22 00:06:16;;;;;;;11.82;5.75;;;;;;;9.50;85.63;100711.34;4977750;28;20089;-69
2023/03/22 00:08:42;;;;;;;10.07;5.10;;;;;;;9.48;85.29;100704.50;4974506;28;20034;-69
2023/03/22 00:11:08;;;;;;;8.38;5.57;;;;;;;9.46;85.66;100708.81;4973633;28;20042;-69
2023/03/22 00:13:36;;;;;;;9.57;5.55;;;;;;;9.48;86.31;100705.34;4969073;28;20057;-70
2023/03/22 00:16:02;;;;;;;11.55;5.40;;;;;;;9.48;86.30;100704.50;4972268;28;20038;-70
2023/03/22 00:18:28;;;;;;;11.63;6.15;;;;;;;9.52;85.44;100708.78;4974537;28;20046;-70
2023/03/22 00:20:56;;;;;;;9.65;5.82;;;;;;;9.51;85.98;100701.91;4975507;28;20039;-69
2023/03/22 00:23:22;;;;;;;7.65;5.07;;;;;;;9.49;86.26;100696.75;4979006;28;20054;-70
2023/03/22 00:25:48;;;;;;;11.52;6.03;;;;;;;9.48;86.84;100692.47;4973594;28;20034;-69
2023/03/22 00:28:15;;;;;;;10.27;5.82;;;;;;;9.48;86.88;100691.59;4976592;28;20042;-69
2023/03/22 00:30:42;;;;;;;13.15;6.93;;;;;;;9.53;86.46;100685.53;4976548;28;20125;-70
2023/03/22 00:33:08;;;;;;;10.27;5.78;;;;;;;9.57;87.13;100687.28;4978197;28;20463;-69
2023/03/22 00:35:33;;;;;;;11.60;6.78;;;;;;;9.71;86.91;100679.44;4972033;28;20098;-69
2023/03/22 00:38:05;;;;;;;10.80;6.60;;;;;;;9.70;86.33;100682.06;4968263;28;20030;-69
2023/03/22 00:40:31;;;;;;;16.40;7.05;;;;;;;9.67;86.81;100673.44;4982063;28;20049;-70
2023/03/22 00:42:57;;;;;;;10.88;6.18;;;;;;;9.70;86.93;100671.72;4970245;28;20042;-69
2023/03/22 00:45:22;;;;;;;10.55;6.13;;;;;;;9.70;87.18;100666.56;4975918;28;20050;-69
2023/03/22 00:47:47;;;;;;;11.13;6.82;;;;;;;9.71;87.11;100666.53;4975574;28;20145;-69
2023/03/22 00:50:13;;;;;;;7.85;5.93;;;;;;;9.72;87.54;100664.81;4972212;28;20114;-69
2023/03/22 00:52:38;;;;;;;10.23;6.40;;;;;;;9.73;86.87;100662.25;4970031;28;20633;-70
2023/03/22 00:55:04;;;;;;;11.60;6.13;;;;;;;9.73;86.28;100654.50;4972403;28;20173;-69
2023/03/22 00:57:29;;;;;;;14.10;6.93;;;;;;;9.83;86.36;100653.56;4973008;28;20074;-69
2023/03/22 00:59:57;;;;;;;9.65;6.45;;;;;;;9.80;86.34;100644.97;4970768;28;20133;-69
2023/03/22 01:02:28;;;;;;;11.57;6.28;;;;;;;9.81;86.50;100641.53;4975700;28;20056;-69
2023/03/22 01:04:54;;;;;;;10.82;6.60;;;;;;;9.79;86.16;100640.69;4977786;28;20514;-69
2023/03/22 01:07:20;;;;;;;12.50;7.45;;;;;;;9.87;85.92;100638.91;4973112;28;20133;-69
2023/03/22 01:09:50;;;;;;;10.88;6.38;;;;;;;9.83;86.37;100638.06;4967341;28;20811;-69
2023/03/22 01:12:16;;;;;;;10.43;6.55;;;;;;;9.78;86.48;100633.81;4967815;28;20051;-69
2023/03/22 01:14:42;;;;;;;11.45;6.95;;;;;;;9.76;86.88;100626.09;4976830;28;20105;-69
2023/03/22 01:17:08;;;;;;;12.02;7.00;;;;;;;9.72;86.70;100619.22;4969772;28;20041;-70
2023/03/22 01:19:35;;;;;;;16.17;7.85;;;;;;;9.66;86.70;100624.44;4972678;28;20464;-69
2023/03/22 01:22:01;;;;;;;13.77;7.10;;;;;;;9.65;87.61;100622.72;4971563;28;20470;-69
2023/03/22 01:24:26;;;;;;;15.35;7.03;;;;;;;9.64;87.64;100618.44;4973558;28;20053;-70
2023/03/22 01:26:51;;;;;;;12.52;7.45;;;;;;;9.63;87.66;100622.72;4969487;28;20043;-69
2023/03/22 01:29:17;;;;;;;12.55;7.13;;;;;;;9.63;86.96;100620.16;4972985;28;20034;-70
2023/03/22 01:31:43;;;;;;;11.30;7.25;;;;;;;9.70;87.53;100617.53;4975919;28;20495;-69
2023/03/22 01:34:08;;;;;;;13.20;6.82;;;;;;;9.74;87.52;100619.19;4971176;28;20041;-69
2023/03/22 01:36:35;;;;;;;12.68;8.40;;;;;;;9.88;86.84;100613.06;4974253;28;20824;-69
2023/03/22 01:39:01;;;;;;;14.50;7.30;;;;;;;9.94;85.54;100613.00;4963731;28;20710;-69
2023/03/22 01:41:27;;;;;;;11.38;6.95;;;;;;;9.95;86.45;100609.56;4967496;28;20058;-69
2023/03/22 01:44:09;;;;;;;10.35;7.32;;;;;;;9.99;86.13;100613.84;4968867;28;20129;-69
2023/03/22 01:46:35;;;;;;;12.95;7.43;;;;;;;10.02;86.13;100611.25;4969404;28;20057;-69
2023/03/22 01:49:02;;;;;;;9.73;7.07;;;;;;;10.02;85.81;100611.25;4971567;28;20042;-69
2023/03/22 01:51:28;;;;;;;10.45;6.90;;;;;;;10.06;85.65;100614.66;4974034;28;20039;-69
2023/03/22 01:54:07;;;;;;;9.85;6.85;;;;;;;10.13;84.89;100600.81;4970206;28;20504;-69
2023/03/22 01:56:36;;;;;;;11.40;6.90;;;;;;;10.13;85.35;100606.84;4977352;28;20050;-69
2023/03/22 01:59:02;;;;;;;10.00;7.50;;;;;;;10.13;84.78;100606.84;4977123;28;20030;-69
2023/03/22 02:01:28;;;;;;;13.73;7.38;;;;;;;10.11;85.63;100597.41;4974134;28;20034;-69
2023/03/22 02:04:01;;;;;;;11.75;6.93;;;;;;;10.08;84.89;100594.84;4970147;28;20093;-69
2023/03/22 02:06:28;;;;;;;8.93;6.85;;;;;;;10.00;85.58;100592.31;4977812;28;20039;-69
2023/03/22 02:08:56;;;;;;;11.55;6.75;;;;;;;9.97;86.04;100584.59;4975532;28;20039;-69
2023/03/22 02:11:37;;;;;;;13.10;7.13;;;;;;;9.98;85.55;100585.44;4967945;28;20105;-70
2023/03/22 02:14:28;;;;;;;10.82;6.93;;;;;;;9.96;85.89;100593.22;4974604;28;20026;-69
2023/03/22 02:17:11;;;;;;;10.25;6.30;;;;;;;9.94;86.42;100581.19;4979300;28;20030;-70
2023/03/22 02:19:44;;;;;;;11.43;7.20;;;;;;;9.93;85.95;100585.50;4969094;28;20058;-69
2023/03/22 02:22:24;;;;;;;12.27;7.07;;;;;;;9.86;86.77;100578.66;4963889;28;20038;-69
2023/03/22 02:25:31;;;;;;;13.40;7.38;;;;;;;9.78;86.97;100572.72;4973835;28;20048;-69
2023/03/22 02:28:08;;;;;;;13.93;6.85;;;;;;;9.61;86.87;100575.41;4992564;28;20057;-70
2023/03/22 02:30:51;;;;;;;17.05;6.90;;;;;;;9.43;88.16;100572.09;5002139;28;21995;-70
2023/03/22 02:33:36;;;;;;;9.13;6.20;;;;;;;9.31;88.57;100577.34;4988723;28;20057;-69
2023/03/22 02:36:10;;;;;;;13.90;7.75;;;;;;;9.30;88.86;100567.88;4975494;28;20046;-69
2023/03/22 02:38:44;;;;;;;17.55;7.70;;;;;;;9.21;89.30;100575.66;4969877;28;20115;-69
2023/03/22 02:41:40;;;;;;;11.95;7.45;;;;;;;9.13;89.56;100565.41;4965906;28;20109;-69
2023/03/22 02:44:25;;;;;;;10.02;6.78;;;;;;;9.01;89.50;100570.63;4968129;28;20531;-70
2023/03/22 02:47:03;;;;;;;13.13;7.55;;;;;;;9.10;90.56;100561.13;4969223;28;20140;-69
2023/03/22 02:49:32;;;;;;;12.65;6.75;;;;;;;9.10;90.21;100565.44;4971976;28;20116;-69
2023/03/22 02:52:02;;;;;;;11.68;6.63;;;;;;;9.08;90.01;100559.41;4974408;28;20074;-69
2023/03/22 02:54:37;;;;;;;13.25;7.35;;;;;;;9.07;91.44;100550.84;4969966;28;20042;-70
2023/03/22 02:57:19;;;;;;;12.60;7.60;;;;;;;9.13;90.49;100545.66;4969211;28;20524;-70
2023/03/22 02:59:45;;;;;;;14.75;7.75;;;;;;;9.16;90.99;100551.66;4969683;28;20038;-69
2023/03/22 03:02:17;;;;;;;16.45;8.48;;;;;;;9.29;90.41;100540.41;4972259;28;20030;-70
2023/03/22 03:04:46;;;;;;;14.68;8.48;;;;;;;9.27;90.04;100542.97;4976341;28;20147;-70
2023/03/22 03:07:15;;;;;;;14.68;9.50;;;;;;;9.31;90.56;100542.09;4969880;28;20035;-69
2023/03/22 03:09:42;;;;;;;15.32;7.85;;;;;;;9.42;90.07;100542.00;4978180;28;20078;-70
2023/03/22 03:12:13;;;;;;;17.73;9.02;;;;;;;9.42;89.66;100536.84;4970942;28;20038;-69
2023/03/22 03:14:39;;;;;;;14.45;8.75;;;;;;;9.38;89.30;100533.44;4974144;28;20058;-70
2023/03/22 03:17:24;;;;;;;13.68;8.55;;;;;;;9.42;89.94;100523.94;4973496;28;20034;-70
2023/03/22 03:19:55;;;;;;;13.32;8.45;;;;;;;9.35;89.59;100530.88;4969502;28;20034;-69
2023/03/22 03:22:24;;;;;;;12.63;8.68;;;;;;;9.31;89.96;100523.19;4969092;28;20129;-69
2023/03/22 03:25:00;;;;;;;14.70;8.60;;;;;;;9.31;90.86;100525.75;4974940;28;20046;-70
2023/03/22 03:27:45;;;;;;;14.93;9.95;;;;;;;9.37;90.47;100528.28;4973027;28;20099;-70
2023/03/22 03:30:18;;;;;;;17.25;9.27;;;;;;;9.31;91.11;100525.75;4971109;28;20047;-70
2023/03/22 03:32:52;;;;;;;15.68;8.95;;;;;;;9.36;90.79;100524.00;4981212;28;20546;-70
2023/03/22 03:35:21;;;;;;;17.48;9.50;;;;;;;9.35;91.01;100530.00;4974047;28;20042;-69
2023/03/22 03:37:58;;;;;;;14.45;9.20;;;;;;;9.32;90.88;100527.44;4980798;28;20026;-69
2023/03/22 03:40:30;;;;;;;14.65;9.95;;;;;;;9.26;91.28;100532.69;4972156;28;20069;-70
2023/03/22 03:43:00;;;;;;;22.10;11.77;;;;;;;9.22;91.29;100531.84;4972137;28;20039;-69
2023/03/22 03:45:25;;;;;;;13.82;9.00;;;;;;;9.22;91.45;100533.56;4969313;28;20035;-70
2023/03/22 03:47:55;;;;;;;14.07;8.95;;;;;;;9.23;91.19;100533.53;4975203;28;20066;-70
2023/03/22 03:50:22;;;;;;;18.52;10.18;;;;;;;9.27;90.55;100534.38;4975729;28;20043;-70
2023/03/22 03:52:47;;;;;;;15.48;9.27;;;;;;;9.26;91.06;100535.25;4983866;28;20045;-69
2023/03/22 03:55:13;;;;;;;16.38;9.00;;;;;;;9.22;91.13;100533.56;4984164;28;20038;-69
2023/03/22 03:57:39;;;;;;;18.38;9.77;;;;;;;9.24;91.55;100536.97;4978764;28;20034;-70
2023/03/22 04:00:05;;;;;;;18.30;9.73;;;;;;;9.21;91.19;100539.56;4971638;28;20805;-69
2023/03/22 04:02:30;;;;;;;17.00;9.65;;;;;;;9.26;91.41;100543.00;4978695;28;20117;-69
2023/03/22 04:04:56;;;;;;;17.20;11.05;;;;;;;9.16;91.20;100544.78;4978099;28;20045;-70
2023/03/22 04:07:21;;;;;;;17.73;9.30;;;;;;;9.10;91.43;100545.66;4985390;28;20038;-69
2023/03/22 04:09:46;;;;;;;14.27;8.65;;;;;;;9.08;92.04;100543.94;4973951;28;20046;-70
2023/03/22 04:12:12;;;;;;;15.45;9.63;;;;;;;9.01;92.09;100545.72;4978992;28;20042;-70
2023/03/22 04:14:37;;;;;;;20.25;9.82;;;;;;;8.96;92.23;100551.78;4977986;28;20129;-69
2023/03/22 04:17:02;;;;;;;18.25;10.00;;;;;;;8.89;92.83;100544.91;4972179;28;20039;-70
2023/03/22 04:19:28;;;;;;;17.48;9.70;;;;;;;8.89;92.96;100548.34;4976379;28;20062;-69
2023/03/22 04:21:53;;;;;;;18.35;9.50;;;;;;;8.89;93.11;100526.88;4981655;28;20649;-69
2023/03/22 04:24:20;;;;;;;14.13;9.68;;;;;;;8.85;92.51;100538.91;4977327;28;20046;-67
2023/03/22 04:26:45;;;;;;;16.90;10.63;;;;;;;8.80;92.69;100545.81;4980240;28;20470;-69
2023/03/22 04:29:11;;;;;;;15.60;8.68;;;;;;;8.73;93.23;100538.97;4974703;28;20043;-69
2023/03/22 04:31:37;;;;;;;16.58;9.95;;;;;;;8.71;94.11;100545.00;4980502;28;20144;-69
2023/03/22 04:34:04;;;;;;;15.27;9.32;;;;;;;8.68;94.29;100542.44;4975965;28;20049;-69
2023/03/22 04:36:35;;;;;;;16.98;9.18;;;;;;;8.69;93.90;100541.59;4969234;28;20054;-69
2023/03/22 04:39:04;;;;;;;17.23;9.80;;;;;;;8.71;93.99;100542.44;4973065;28;20039;-68
2023/03/22 04:41:30;;;;;;;18.05;9.40;;;;;;;8.66;94.02;100534.72;4968705;28;20057;-69
2023/03/22 04:43:56;;;;;;;17.23;8.10;;;;;;;8.63;94.26;100539.03;4966650;28;20429;-68
2023/03/22 04:46:22;;;;;;;17.38;9.00;;;;;;;8.57;94.34;100534.78;4969047;28;20121;-68
2023/03/22 04:48:47;;;;;;;14.65;8.85;;;;;;;8.57;95.04;100532.19;4968512;28;20585;-68
2023/03/22 04:51:13;;;;;;;17.23;9.30;;;;;;;8.53;94.53;100535.63;4974567;28;20526;-69
2023/03/22 04:53:38;;;;;;;17.33;8.90;;;;;;;8.55;94.57;100526.16;4979545;28;20084;-69
2023/03/22 04:56:06;;;;;;;14.73;7.57;;;;;;;8.55;95.68;100523.59;4977767;28;20100;-69
2023/03/22 04:58:33;;;;;;;17.33;9.05;;;;;;;8.62;95.39;100524.44;4974186;28;20061;-68
2023/03/22 05:00:59;;;;;;;12.45;7.85;;;;;;;8.61;95.43;100509.81;4966244;28;20504;-68
2023/03/22 05:03:24;;;;;;;18.33;8.75;;;;;;;8.64;95.13;100518.41;4971464;28;20060;-68
2023/03/22 05:05:53;;;;;;;15.18;8.43;;;;;;;8.67;95.59;100507.22;4976744;28;20426;-68
2023/03/22 05:08:26;;;;;;;14.43;8.90;;;;;;;8.78;95.72;100505.47;4976469;28;20072;-68
2023/03/22 05:10:55;;;;;;;17.67;8.75;;;;;;;8.91;95.31;100505.38;4980331;28;20033;-68
2023/03/22 05:13:24;;;;;;;16.25;8.52;;;;;;;9.05;94.77;100495.00;4977887;28;20182;-68
2023/03/22 05:15:50;;;;;;;14.32;7.90;;;;;;;9.20;94.09;100512.09;4975762;28;20122;-68
2023/03/22 05:18:19;;;;;;;15.70;7.88;;;;;;;9.32;93.34;100517.13;4968751;28;20038;-69
2023/03/22 05:20:46;;;;;;;16.70;7.78;;;;;;;9.45;92.14;100505.88;4975561;28;20038;-68
2023/03/22 05:23:12;;;;;;;12.68;7.03;;;;;;;9.45;91.62;100509.31;4974891;28;20087;-69
2023/03/22 05:25:37;;;;;;;12.38;7.72;;;;;;;9.45;91.90;100506.72;4971075;28;20046;-69
2023/03/22 05:28:03;;;;;;;9.50;6.28;;;;;;;9.41;91.47;100506.75;4974924;28;20035;-68
2023/03/22 05:30:29;;;;;;;11.02;7.47;;;;;;;9.31;91.75;100495.66;4986424;28;20038;-69
2023/03/22 05:33:03;;;;;;;15.18;6.20;;;;;;;9.33;92.13;100493.06;4985636;28;20046;-69
2023/03/22 05:35:30;;;;;;;12.57;7.00;;;;;;;9.34;91.93;100495.66;4968525;28;20047;-69
2023/03/22 05:37:57;;;;;;;12.50;6.78;;;;;;;9.37;91.19;100492.19;4972079;28;20057;-69
2023/03/22 05:40:23;;;;;;;18.67;6.20;;;;;;;9.32;91.79;100496.50;4978397;28;20046;-69
2023/03/22 05:42:49;;;;;;;9.38;5.78;;;;;;;9.27;91.94;100504.28;4973445;28;20038;-69
2023/03/22 05:45:14;;;;;;;14.25;6.32;;;;;;;9.30;91.91;100500.81;4972570;28;20049;-69
2023/03/22 05:47:40;;;;;;;12.63;6.03;;;;;;;9.35;91.64;100511.94;4971294;28;20046;-69
2023/03/22 05:50:08;;;;;;;17.75;6.95;;;;;;;9.44;91.35;100511.88;4978572;28;20046;-69
2023/03/22 05:52:34;;;;;;;12.98;6.60;;;;;;;9.64;90.36;100521.22;4977386;28;20142;-68
2023/03/22 05:54:59;;;;;;;10.73;6.03;;;;;;;9.78;89.74;100515.94;4982020;28;20518;-69
2023/03/22 05:57:25;;;;;;;10.50;5.93;;;;;;;9.88;89.70;100516.72;4974140;28;20047;-71
2023/03/22 05:59:52;;;;;;;12.82;6.30;;;;;;;9.96;88.74;100520.06;4975010;28;20869;-70
2023/03/22 06:02:19;;;;;;;20.65;9.48;;;;;;;10.04;88.02;100513.97;4971233;28;20041;-71
2023/03/22 06:04:45;;;;;;;10.65;6.35;;;;;;;10.11;87.84;100510.44;4972247;28;20088;-71
2023/03/22 06:07:11;;;;;;;10.15;6.10;;;;;;;10.18;87.24;100513.78;4967696;28;20042;-71
2023/03/22 06:09:36;;;;;;;11.50;6.68;;;;;;;10.24;87.40;100501.69;4971936;28;20042;-71
2023/03/22 06:12:02;;;;;;;11.20;6.57;;;;;;;10.31;86.66;100514.53;4968582;28;20031;-70
2023/03/22 06:14:27;;;;;;;13.27;6.57;;;;;;;10.34;86.70;100511.91;4975738;28;20096;-69
2023/03/22 06:16:53;;;;;;;12.25;6.35;;;;;;;10.38;86.35;100506.69;4972438;28;20030;-69
2023/03/22 06:19:18;;;;;;;10.35;5.90;;;;;;;10.45;85.86;100504.88;4966417;28;20039;-69
2023/03/22 06:21:43;;;;;;;11.43;5.40;;;;;;;10.53;85.30;100509.09;4971748;28;21021;-69
2023/03/22 06:24:09;;;;;;;13.73;5.40;;;;;;;10.66;85.49;100505.47;4973213;28;20062;-69
2023/03/22 06:26:34;;;;;;;12.27;6.30;;;;;;;10.80;85.24;100506.13;4976677;28;20554;-70
2023/03/22 06:29:02;;;;;;;11.18;5.75;;;;;;;10.89;83.84;100510.31;4969172;28;20069;-69
2023/03/22 06:31:28;;;;;;;10.20;6.10;;;;;;;10.95;83.75;100501.66;4966839;28;20066;-69
2023/03/22 06:33:53;;;;;;;8.82;4.93;;;;;;;11.01;83.67;100501.56;4972386;28;20089;-68
2023/03/22 06:36:19;;;;;;;11.05;5.35;;;;;;;11.05;83.44;100500.63;4973733;28;20137;-69
2023/03/22 06:38:44;;;;;;;10.43;5.72;;;;;;;11.07;83.34;100511.84;4969988;28;20049;-69
2023/03/22 06:41:10;;;;;;;14.95;5.78;;;;;;;11.06;83.28;100507.53;4970607;28;20037;-70
2023/03/22 06:43:36;;;;;;;7.50;4.55;;;;;;;11.08;83.28;100511.78;4971968;28;20042;-69
2023/03/22 06:46:01;;;;;;;11.45;5.13;;;;;;;11.13;83.14;100512.56;4975991;28;20048;-69
2023/03/22 06:48:26;;;;;;;12.32;4.85;;;;;;;11.22;82.09;100514.16;4976185;28;20046;-69
2023/03/22 06:50:52;;;;;;;8.90;5.18;;;;;;;11.31;82.14;100512.31;4976029;28;20034;-69
2023/03/22 06:53:17;;;;;;;16.17;5.18;;;;;;;11.45;81.52;100508.69;4973460;28;20039;-68
2023/03/22 06:55:43;;;;;;;14.73;5.35;;;;;;;11.55;81.11;100505.06;4980771;28;20034;-68
2023/03/22 06:58:08;;;;;;;15.13;5.30;;;;;;;11.59;80.92;100512.75;4972382;28;20513;-69
2023/03/22 07:00:33;;;;;;;8.45;4.22;;;;;;;11.61;80.29;100512.72;4981288;28;20031;-69
2023/03/22 07:02:59;;;;;;;9.82;5.00;;;;;;;11.66;80.78;100516.94;4971753;28;20527;-70
2023/03/22 07:05:25;;;;;;;13.05;5.57;;;;;;;11.74;80.11;100504.75;4966963;28;20077;-70
2023/03/22 07:07:50;;;;;;;11.00;5.28;;;;;;;11.83;80.40;100506.31;4969695;28;20121;-70
2023/03/22 07:10:16;;;;;;;9.88;4.72;;;;;;;11.84;80.02;100501.09;4973135;28;20677;-70
2023/03/22 07:12:41;;;;;;;11.00;4.88;;;;;;;11.88;80.19;100504.47;4966520;28;20077;-71
2023/03/22 07:15:07;;;;;;;10.68;4.75;;;;;;;11.95;80.44;100497.47;4971718;28;20798;-70
2023/03/22 07:17:32;;;;;;;10.07;5.10;;;;;;;12.02;79.64;100494.72;4984192;28;20077;-70
2023/03/22 07:19:58;;;;;;;9.77;4.97;;;;;;;12.15;79.73;100491.03;4976285;28;20030;-70
2023/03/22 07:22:23;;;;;;;11.68;4.88;;;;;;;12.26;79.12;100490.81;4977590;28;20077;-70
2023/03/22 07:24:49;;;;;;;13.90;4.22;;;;;;;12.31;78.22;100479.50;4977520;28;20046;-70
2023/03/22 07:27:15;;;;;;;9.05;4.43;;;;;;;12.40;77.94;100474.13;4972879;28;20042;-70
2023/03/22 07:29:41;;;;;;;11.27;4.78;;;;;;;12.53;77.56;100476.44;4976542;28;20063;-70
2023/03/22 07:32:06;;;;;;;10.32;4.78;;;;;;;12.66;77.24;100468.38;4969465;28;20031;-70
2023/03/22 07:34:32;;;;;;;10.20;4.15;;;;;;;12.74;76.75;100466.47;4975989;28;20088;-70
2023/03/22 07:36:57;;;;;;;7.38;3.33;;;;;;;12.78;75.97;100460.34;4979168;28;20161;-69
2023/03/22 07:39:27;;;;;;;5.68;2.80;;;;;;;12.83;75.17;100458.47;4971067;28;20085;-69
2023/03/22 07:41:53;;;;;;;12.68;3.10;;;;;;;12.89;74.25;100437.59;4976194;28;20045;-69
2023/03/22 07:44:19;;;;;;;4.90;2.35;;;;;;;13.00;73.06;100435.63;4974235;28;20038;-69
2023/03/22 07:46:44;;;;;;;9.40;3.25;;;;;;;13.14;72.65;100424.09;4981125;28;20105;-70
2023/03/22 07:49:09;;;;;;;5.57;2.00;;;;;;;13.27;71.76;100415.09;4971626;28;20042;-71
2023/03/22 07:51:35;;;;;;;5.65;2.42;;;;;;;13.36;70.42;100394.09;4975700;28;20508;-69
2023/03/22 07:54:01;;;;;;;4.63;2.20;;;;;;;13.50;70.01;100403.22;4974665;28;20046;-69
2023/03/22 07:56:26;;;;;;;5.65;1.98;;;;;;;13.54;69.52;100401.41;4977575;28;20042;-70
2023/03/22 07:58:52;;;;;;;5.63;2.05;;;;;;;13.53;67.22;100368.56;4974316;28;20046;-69
2023/03/22 08:01:17;;;;;;;4.93;1.70;;;;;;;13.52;68.57;100385.03;4981130;28;20456;-69
2023/03/22 08:03:43;;;;;;;10.90;2.40;;;;;;;13.45;68.95;100388.66;4973693;28;20030;-69
2023/03/22 08:06:09;;;;;;;10.32;2.00;;;;;;;13.40;68.69;100394.00;4974818;28;20030;-69
2023/03/22 08:08:35;;;;;;;4.78;1.77;;;;;;;13.28;68.16;100394.31;4977086;28;20053;-69
2023/03/22 08:11:04;;;;;;;6.15;2.00;;;;;;;13.21;68.43;100395.34;4975787;28;20030;-68
2023/03/22 08:13:30;;;;;;;5.43;2.00;;;;;;;13.14;68.92;100400.72;4974383;28;20081;-66
2023/03/22 08:15:55;;;;;;;7.88;1.95;;;;;;;13.12;69.01;100412.91;4980660;28;20042;-67
2023/03/22 08:18:21;;;;;;;7.28;2.15;;;;;;;13.18;67.79;100384.19;4984271;28;20129;-66
2023/03/22 08:20:55;;;;;;;7.28;1.83;;;;;;;13.24;66.79;100360.66;4979243;28;20040;-66
2023/03/22 08:23:21;;;;;;;6.72;1.92;;;;;;;13.43;66.83;100361.91;4974791;28;20054;-67
2023/03/22 08:25:47;;;;;;;6.28;1.60;;;;;;;13.61;66.44;100356.22;4970045;28;20058;-67
2023/03/22 08:28:14;;;;;;;6.78;1.52;;;;;;;13.77;65.89;100348.88;4978341;28;20539;-66
2023/03/22 08:30:41;;;;;;;4.30;1.60;;;;;;;13.94;64.47;100324.09;4982333;28;20039;-66
2023/03/22 08:33:06;;;;;;;5.57;1.33;;;;;;;14.10;63.99;100317.53;4973482;28;20570;-66
2023/03/22 08:35:32;;;;;;;3.75;1.33;;;;;;;14.25;63.26;100300.63;4969816;28;20100;-64
2023/03/22 08:37:57;;;;;;;5.00;1.80;;;;;;;14.29;63.28;100297.03;4985728;28;20039;-66
2023/03/22 08:40:23;;;;;;;6.50;1.88;;;;;;;14.27;62.96;100296.25;4982383;28;20030;-65
2023/03/22 08:42:49;;;;;;;5.78;1.25;;;;;;;14.28;62.23;100300.53;4978353;28;20053;-66
2023/03/22 08:45:15;;;;;;;5.47;1.40;;;;;;;14.28;61.07;100263.28;4979632;28;20037;-66
2023/03/22 08:47:40;;;;;;;3.78;1.20;;;;;;;14.30;61.80;100287.50;4972599;28;20050;-65
2023/03/22 08:50:07;;;;;;;3.00;1.10;;;;;;;14.28;60.56;100271.94;4972754;28;20026;-66
2023/03/22 08:52:33;;;;;;;3.13;1.30;;;;;;;14.45;60.41;100276.66;4979485;28;20114;-65
2023/03/22 08:54:58;;;;;;;7.18;1.50;;;;;;;14.60;60.04;100261.38;4975487;28;20042;-66
2023/03/22 08:57:26;;;;;;;2.47;1.30;;;;;;;14.80;59.44;100262.50;4973829;28;20105;-65
2023/03/22 08:59:56;;;;;;;5.18;1.30;;;;;;;14.89;58.77;100254.38;4978100;28;20149;-65
2023/03/22 09:02:22;;;;;;;7.00;1.63;;;;;;;14.95;58.17;100255.03;4979587;28;20065;-65
2023/03/22 09:04:48;;;;;;;8.18;1.67;;;;;;;14.97;56.57;100234.13;4972797;28;20031;-64
2023/03/22 09:07:13;;;;;;;6.03;1.40;;;;;;;15.07;57.49;100257.22;4972480;28;20049;-65
2023/03/22 09:09:39;;;;;;;4.88;1.50;;;;;;;15.38;58.33;100274.34;4970632;28;20042;-66
2023/03/22 09:12:04;;;;;;;4.13;1.67;;;;;;;15.63;57.08;100251.75;4968539;28;20042;-66
2023/03/22 09:14:30;;;;;;;4.22;1.27;;;;;;;15.70;58.38;100269.69;4973862;28;20034;-65
2023/03/22 09:16:55;;;;;;;4.88;1.73;;;;;;;15.65;56.54;100223.88;4973218;28;20108;-65
2023/03/22 09:19:21;;;;;;;6.03;1.40;;;;;;;15.58;57.22;100227.59;4970799;28;20031;-65
2023/03/22 09:21:46;;;;;;;3.38;1.00;;;;;;;15.45;56.26;100226.34;4968688;28;20054;-65
2023/03/22 09:24:12;;;;;;;8.10;1.30;;;;;;;15.29;56.20;100230.38;4970522;28;20045;-64
2023/03/22 09:26:37;;;;;;;2.72;1.00;;;;;;;15.08;57.07;100250.22;4974530;28;20047;-65
2023/03/22 09:29:03;;;;;;;3.47;1.17;;;;;;;14.84;56.01;100228.50;4971954;28;20043;-64
2023/03/22 09:31:28;;;;;;;2.75;1.08;;;;;;;14.78;56.52;100246.09;4968306;28;20026;-65
2023/03/22 09:33:54;;;;;;;6.05;1.40;;;;;;;14.64;57.50;100254.34;4971233;28;20566;-65
2023/03/22 09:36:19;;;;;;;3.97;1.13;;;;;;;14.55;58.37;100265.91;4976181;28;20046;-65
2023/03/22 09:38:46;;;;;;;7.15;1.42;;;;;;;14.62;56.81;100232.75;4975206;28;20038;-65
2023/03/22 09:41:26;;;;;;;3.25;0.98;;;;;;;14.76;56.72;100245.28;4970684;28;20047;-65
2023/03/22 09:43:58;;;;;;;2.92;1.00;;;;;;;14.89;55.71;100212.75;4971594;28;20097;-66
2023/03/22 09:46:35;;;;;;;4.57;1.10;;;;;;;15.02;55.23;100207.03;4971003;28;20043;-65
2023/03/22 09:49:05;;;;;;;4.32;1.08;;;;;;;15.14;55.94;100221.38;4965647;28;20045;-65
2023/03/22 09:51:43;;;;;;;3.22;1.10;;;;;;;15.32;55.58;100209.44;4967717;28;20084;-66
2023/03/22 09:54:16;;;;;;;6.20;1.25;;;;;;;15.60;54.74;100199.72;4976628;28;20038;-65
2023/03/22 09:56:43;;;;;;;3.63;1.30;;;;;;;15.80;54.27;100184.19;4973108;28;20137;-66
2023/03/22 09:59:23;;;;;;;3.60;1.20;;;;;;;15.66;54.58;100197.78;4965300;28;20058;-66
2023/03/22 10:01:59;;;;;;;4.43;0.98;;;;;;;15.64;54.24;100191.75;4975042;28;20034;-66
2023/03/22 10:04:50;;;;;;;5.10;1.05;;;;;;;15.68;53.69;100174.25;4969743;28;20054;-66
2023/03/22 10:07:27;;;;;;;4.03;1.35;;;;;;;15.71;54.51;100201.03;4971750;28;20069;-66
2023/03/22 10:10:28;;;;;;;3.60;0.93;;;;;;;15.59;53.44;100184.97;5038508;27;21099;-65
2023/03/22 10:13:14;;;;;;;3.53;0.80;;;;;;;15.75;53.88;100205.25;5018570;28;20041;-65
2023/03/22 10:15:43;;;;;;;7.47;1.10;;;;;;;15.87;54.23;100201.31;5035240;28;20049;-66
2023/03/22 10:18:19;;;;;;;2.88;0.95;;;;;;;16.02;54.14;100194.66;5034425;28;20160;-66
2023/03/22 10:20:51;;;;;;;4.60;1.20;;;;;;;16.00;53.34;100188.66;5032172;28;20041;-67
2023/03/22 10:23:26;;;;;;;5.35;0.90;;;;;;;16.07;54.04;100198.75;5030132;28;20029;-67
2023/03/22 10:25:55;;;;;;;3.75;0.93;;;;;;;16.10;52.57;100184.75;5034454;28;20037;-65
2023/03/22 10:28:25;;;;;;;5.80;1.00;;;;;;;16.05;52.18;100166.69;5031508;28;20044;-64
2023/03/22 10:30:56;;;;;;;2.65;0.73;;;;;;;16.15;52.43;100174.97;5031248;28;20519;-64
2023/03/22 10:34:05;;;;;;;4.65;1.00;;;;;;;16.18;51.61;100151.38;5027194;28;20138;-64
2023/03/22 10:36:34;;;;;;;3.17;0.80;;;;;;;16.22;51.45;100156.41;5039392;28;20041;-65
2023/03/22 10:39:11;;;;;;;4.00;0.88;;;;;;;16.14;51.68;100171.53;5042588;28;20036;-65
2023/03/22 10:41:38;;;;;;;3.65;0.70;;;;;;;16.13;51.58;100153.34;5037803;28;20065;-64
2023/03/22 10:44:05;;;;;;;3.45;1.08;;;;;;;16.06;51.94;100168.38;5026538;28;20048;-64
2023/03/22 10:46:36;;;;;;;4.25;1.00;;;;;;;16.17;51.25;100149.72;5030535;28;20025;-64
2023/03/22 10:49:04;;;;;;;2.72;0.75;;;;;;;16.32;50.68;100136.03;5026828;28;20405;-64
2023/03/22 10:51:37;;;;;;;2.58;0.80;;;;;;;16.61;49.70;100121.75;5031182;28;20049;-64
2023/03/22 10:54:04;;;;;;;3.08;1.10;;;;;;;16.83;49.80;100130.34;5034855;28;20057;-63
2023/03/22 10:56:30;;;;;;;2.67;0.90;;;;;;;17.08;48.79;100123.13;5029269;28;21606;-63
2023/03/22 10:58:56;;;;;;;2.95;0.82;;;;;;;17.31;48.49;100125.53;5029703;28;20025;-64
2023/03/22 11:01:30;;;;;;;3.97;1.15;;;;;;;17.39;48.68;100127.81;5028347;28;20134;-64
2023/03/22 11:04:05;;;;;;;;;;;;;;;17.46;48.47;100133.59;5032041;28;20033;-64
2023/03/22 11:06:33;;;;;;;3.10;0.75;;;;;;;17.12;47.14;100109.03;5029924;28;19925;-66
2023/03/22 11:09:11;;;;;;;2.33;0.77;;;;;;;17.03;47.85;100132.09;5027933;28;20033;-65
2023/03/22 11:11:52;;;;;;;3.38;0.80;;;;;;;16.87;48.14;100139.75;5023786;28;20045;-66
2023/03/22 11:14:26;;;;;;;4.22;0.90;;;;;;;16.78;47.63;100132.31;5028239;28;20056;-65
2023/03/22 11:16:54;;;;;;;1.48;0.70;;;;;;;16.64;49.30;100164.22;5030584;28;20040;-66
2023/03/22 11:19:49;;;;;;;7.00;1.35;;;;;;;16.65;50.21;100184.16;5028624;28;20116;-66
2023/03/22 11:22:38;;;;;;;3.15;1.00;;;;;;;16.63;50.53;100179.91;5020197;28;20051;-66
2023/03/22 11:25:25;;;;;;;2.38;0.70;;;;;;;16.45;50.21;100173.72;5013447;28;20041;-68
2023/03/22 11:28:03;;;;;;;1.60;0.80;;;;;;;16.43;49.71;100166.88;5017315;28;20060;-66
2023/03/22 11:30:30;;;;;;;2.42;1.10;;;;;;;16.46;50.17;100177.19;5013604;28;20400;-66
2023/03/22 11:33:15;;;;;;;2.90;0.88;;;;;;;16.52;51.24;100180.38;5021696;28;20886;-68